Berry, Kentucky
Current Conditions -  °F | °C
As of 7:15 AM on Saturday 25 Oct 2014 (Local Time) from KFGX Reporting Station
Scattered Clouds Scattered Clouds  
Wind Chill: 40°   Ceiling: Unl
Heat Index: 43°   Visibility: 10mi
Dew Point: 40°   Wind: 5mph
Humidity: 88%   Direction: 220°SW
Pressure: 30.05"   Gusts: NA
Location:  38.52°N, 84.38°W
Report Text: KFGX 251115Z AUTO 22004KT 10SM SCT095 06/04 A3005 RMK AO2 T00610043
Loading
Personal Weather Stations






























Interactive Weather Map New forecast layout! Learn more

10-Day Weather Forecast

Advertisements
Track Severe Weather on mobile